Lake of the Woods, Illinois
Current Conditions -  °F | °C
As of 11:54 AM on Tuesday 21 Oct 2014 (Local Time) from KPIA Reporting Station
Few Clouds Few Clouds  
Wind Chill: 57°   Ceiling: Unl
Heat Index: 57°   Visibility: 10mi
Dew Point: 39°   Wind: 9mph
Humidity: 51%   Direction: 90°E
Pressure: 30.18"   Gusts: NA
Location:  40.8455°N, 89.6704°W
Report Text: KPIA 211654Z 09008KT 10SM FEW034 14/04 A3018 RMK AO2 SLP221 T01390039
Loading
Personal Weather Stations






























Interactive Weather Map New forecast layout! Learn more

10-Day Weather Forecast

Advertisements
Track Severe Weather on mobile